Time;durP1;ratioP1;P1;durP2;ratioP2;P2;SDS_P1;SDS_P2;PMS_P1;PMS_P2;Temp;Humidity;BMP_temperature;BMP_pressure;BME280_temperature;BME280_humidity;BME280_pressure;Samples;Min_cycle;Max_cycle;Signal;HPM_P1;HPM_P2
2023/04/26 00:00:50;;;;;;;8.13;6.30;;;7.70;99.90;;;;;;5050816;28;20192;-32
2023/04/26 00:03:19;;;;;;;7.30;6.33;;;7.60;99.90;;;;;;5034046;28;20193;-32
2023/04/26 00:05:45;;;;;;;9.17;6.63;;;7.60;99.90;;;;;;5034017;28;20196;-32
2023/04/26 00:08:11;;;;;;;8.77;6.43;;;7.60;99.90;;;;;;5048736;28;20214;-32
2023/04/26 00:10:39;;;;;;;5.73;5.03;;;7.60;99.90;;;;;;5051256;28;20189;-32
2023/04/26 00:13:05;;;;;;;7.63;5.87;;;7.60;99.90;;;;;;5050689;28;20245;-32
2023/04/26 00:15:31;;;;;;;7.20;5.47;;;7.60;99.90;;;;;;5050909;28;20212;-33
2023/04/26 00:17:57;;;;;;;6.80;5.70;;;7.60;99.90;;;;;;5050201;28;20678;-31
2023/04/26 00:20:23;;;;;;;7.20;5.57;;;7.60;99.90;;;;;;5053335;28;20196;-31
2023/04/26 00:22:49;;;;;;;8.80;5.90;;;7.60;99.90;;;;;;5050707;28;20212;-32
2023/04/26 00:25:16;;;;;;;6.87;5.13;;;7.60;99.90;;;;;;5050671;28;20174;-31
2023/04/26 00:27:42;;;;;;;7.77;5.63;;;7.70;99.90;;;;;;5034174;28;20210;-31
2023/04/26 00:30:09;;;;;;;7.13;5.47;;;7.60;99.90;;;;;;5033686;28;20251;-31
2023/04/26 00:32:35;;;;;;;8.23;5.20;;;7.60;99.90;;;;;;5050636;28;20272;-31
2023/04/26 00:35:03;;;;;;;6.27;5.43;;;7.60;99.90;;;;;;5033703;28;20188;-31
2023/04/26 00:37:29;;;;;;;6.67;5.37;;;7.60;99.90;;;;;;5049917;28;20348;-32
2023/04/26 00:39:56;;;;;;;6.07;5.47;;;7.60;99.90;;;;;;5033816;28;20192;-30
2023/04/26 00:42:22;;;;;;;8.03;6.43;;;7.60;99.90;;;;;;5049892;28;20225;-32
2023/04/26 00:44:49;;;;;;;6.67;5.57;;;7.60;99.90;;;;;;5032530;28;20534;-32
2023/04/26 00:47:15;;;;;;;7.13;6.33;;;7.60;99.90;;;;;;5051837;28;20201;-31
2023/04/26 00:49:42;;;;;;;9.27;6.07;;;7.60;99.90;;;;;;5050526;28;20231;-31
2023/04/26 00:52:09;;;;;;;7.87;5.93;;;7.60;99.90;;;;;;5050052;28;20232;-32
2023/04/26 00:54:35;;;;;;;5.70;5.07;;;7.60;99.90;;;;;;5050269;28;20181;-30
2023/04/26 00:57:01;;;;;;;7.00;5.47;;;7.60;99.90;;;;;;5050183;28;20188;-31
2023/04/26 00:59:28;;;;;;;6.47;5.33;;;7.50;99.90;;;;;;5051570;28;20269;-31
2023/04/26 01:01:54;;;;;;;6.50;5.40;;;7.50;99.90;;;;;;5033665;28;20202;-30
2023/04/26 01:04:24;;;;;;;5.93;5.13;;;7.40;99.90;;;;;;5033296;28;20185;-31
2023/04/26 01:06:50;;;;;;;5.83;5.17;;;7.30;99.90;;;;;;5047223;28;20205;-31
2023/04/26 01:09:17;;;;;;;5.47;4.87;;;7.30;99.90;;;;;;5046808;28;20193;-31
2023/04/26 01:11:44;;;;;;;6.47;5.47;;;7.20;99.90;;;;;;5047371;28;20293;-31
2023/04/26 01:14:10;;;;;;;7.17;6.03;;;7.10;99.90;;;;;;5014112;28;20192;-31
2023/04/26 01:16:38;;;;;;;6.57;5.80;;;7.20;99.90;;;;;;5046594;28;20214;-31
2023/04/26 01:19:11;;;;;;;7.30;5.80;;;7.10;99.90;;;;;;5046117;28;20252;-31
2023/04/26 01:21:39;;;;;;;8.57;6.17;;;7.00;99.90;;;;;;5046846;28;20309;-32
2023/04/26 01:24:05;;;;;;;6.97;6.27;;;7.00;99.90;;;;;;5046483;28;20280;-31
2023/04/26 01:26:31;;;;;;;7.17;5.57;;;6.90;99.90;;;;;;5046317;28;20181;-31
2023/04/26 01:28:57;;;;;;;9.10;6.83;;;6.70;99.90;;;;;;5045955;28;20192;-31
2023/04/26 01:31:23;;;;;;;7.60;5.67;;;6.60;99.90;;;;;;5046943;28;20197;-31
2023/04/26 01:33:50;;;;;;;7.83;6.03;;;6.60;99.90;;;;;;5028477;28;20181;-31
2023/04/26 01:36:18;;;;;;;7.93;5.83;;;6.60;99.90;;;;;;5049250;28;20184;-31
2023/04/26 01:38:44;;;;;;;7.67;6.27;;;6.70;99.90;;;;;;5033255;28;20186;-31
2023/04/26 01:41:10;;;;;;;8.53;6.20;;;6.70;99.90;;;;;;5050073;28;20240;-32
2023/04/26 01:43:36;;;;;;;6.90;6.20;;;6.70;99.90;;;;;;5033778;28;20184;-31
2023/04/26 01:46:01;;;;;;;10.53;6.57;;;6.70;99.90;;;;;;5033053;28;20201;-31
2023/04/26 01:48:28;;;;;;;8.47;6.50;;;6.70;99.90;;;;;;5049613;28;20239;-31
2023/04/26 01:50:54;;;;;;;8.33;6.27;;;6.70;99.90;;;;;;5048762;28;20185;-32
2023/04/26 01:53:20;;;;;;;7.93;5.73;;;6.70;99.90;;;;;;5049593;28;20302;-31
2023/04/26 01:55:46;;;;;;;6.93;6.00;;;6.60;99.90;;;;;;5053457;28;20179;-31
2023/04/26 01:58:12;;;;;;;6.90;5.73;;;6.60;99.90;;;;;;5056655;28;20298;-31
2023/04/26 02:00:38;;;;;;;9.50;6.43;;;6.70;99.90;;;;;;5057387;28;20189;-32
2023/04/26 02:03:04;;;;;;;8.63;6.20;;;6.70;99.90;;;;;;5072809;28;20707;-30
2023/04/26 02:05:30;;;;;;;7.40;5.70;;;6.60;99.90;;;;;;5064148;28;20195;-31
2023/04/26 02:07:56;;;;;;;8.67;5.93;;;6.60;99.90;;;;;;5052780;28;20273;-31
2023/04/26 02:10:22;;;;;;;8.60;6.27;;;6.60;99.90;;;;;;5036713;28;20275;-31
2023/04/26 02:12:47;;;;;;;10.90;6.40;;;6.60;99.90;;;;;;5053386;28;20224;-30
2023/04/26 02:15:14;;;;;;;7.77;6.10;;;6.60;99.90;;;;;;5036631;28;20189;-31
2023/04/26 02:17:40;;;;;;;9.20;6.50;;;6.60;99.90;;;;;;5053366;28;20270;-31
2023/04/26 02:20:09;;;;;;;7.30;6.37;;;6.60;99.90;;;;;;5055043;28;20178;-31
2023/04/26 02:22:35;;;;;;;7.80;6.13;;;6.60;99.90;;;;;;5036580;28;20205;-30
2023/04/26 02:25:01;;;;;;;7.43;5.50;;;6.60;99.90;;;;;;5035873;28;20192;-31
2023/04/26 02:27:27;;;;;;;12.63;6.47;;;6.30;99.90;;;;;;5053092;28;20213;-31
2023/04/26 02:29:53;;;;;;;8.43;6.07;;;6.20;99.90;;;;;;5053247;28;20187;-31
2023/04/26 02:32:19;;;;;;;10.33;6.43;;;6.00;99.90;;;;;;5052404;28;20201;-31
2023/04/26 02:34:45;;;;;;;8.70;6.90;;;6.00;99.90;;;;;;5052600;28;20290;-30
2023/04/26 02:37:11;;;;;;;11.43;7.73;;;5.90;99.90;;;;;;5051141;28;20211;-31
2023/04/26 02:39:37;;;;;;;11.73;7.77;;;5.90;99.90;;;;;;5053030;28;20188;-31
2023/04/26 02:42:08;;;;;;;11.47;8.20;;;6.00;99.90;;;;;;5036399;28;20205;-31
2023/04/26 02:44:34;;;;;;;13.30;8.33;;;6.00;99.90;;;;;;5035398;28;20178;-31
2023/04/26 02:47:00;;;;;;;12.03;8.90;;;6.10;99.90;;;;;;5036204;28;20212;-31
2023/04/26 02:49:26;;;;;;;11.03;8.13;;;6.10;99.90;;;;;;5035253;28;20275;-30
2023/04/26 02:51:52;;;;;;;13.50;8.30;;;6.20;99.90;;;;;;5053849;28;20200;-31
2023/04/26 02:54:18;;;;;;;9.87;7.83;;;6.20;99.90;;;;;;5052425;28;20194;-31
2023/04/26 02:56:44;;;;;;;13.43;9.07;;;6.20;99.90;;;;;;5035243;28;20201;-31
2023/04/26 02:59:10;;;;;;;10.10;8.13;;;6.20;99.90;;;;;;5053886;28;20188;-31
2023/04/26 03:01:36;;;;;;;10.33;9.00;;;6.30;99.90;;;;;;5035891;28;20307;-30
2023/04/26 03:04:02;;;;;;;10.77;7.73;;;6.40;99.90;;;;;;5035724;28;20188;-31
2023/04/26 03:06:28;;;;;;;9.87;7.70;;;6.40;99.90;;;;;;5051663;28;20192;-31
2023/04/26 03:08:55;;;;;;;12.00;7.77;;;6.40;99.90;;;;;;5035326;28;20184;-32
2023/04/26 03:11:21;;;;;;;10.60;7.40;;;6.40;99.90;;;;;;5052978;28;20204;-30
2023/04/26 03:13:47;;;;;;;8.43;7.43;;;6.40;99.90;;;;;;5052084;28;20243;-30
2023/04/26 03:16:13;;;;;;;8.03;6.97;;;6.40;99.90;;;;;;5051937;28;20275;-31
2023/04/26 03:18:39;;;;;;;26.53;8.07;;;6.30;99.90;;;;;;5035511;28;20275;-29
2023/04/26 03:21:07;;;;;;;10.73;7.63;;;6.20;99.90;;;;;;5036027;28;20200;-29
2023/04/26 03:23:33;;;;;;;11.37;7.73;;;6.10;99.90;;;;;;5052089;28;20179;-29
2023/04/26 03:25:59;;;;;;;21.30;7.77;;;6.20;99.90;;;;;;5035270;28;20185;-29
2023/04/26 03:28:25;;;;;;;40.67;7.70;;;6.10;99.90;;;;;;5051900;28;20212;-29
2023/04/26 03:30:51;;;;;;;116.67;10.47;;;6.10;99.90;;;;;;5035250;28;20184;-29
2023/04/26 03:33:18;;;;;;;12.10;7.87;;;5.90;99.90;;;;;;5034148;28;20181;-29
2023/04/26 03:35:44;;;;;;;100.67;10.70;;;5.70;99.90;;;;;;5051304;28;20214;-29
2023/04/26 03:38:10;;;;;;;39.30;8.70;;;5.60;99.90;;;;;;5051639;28;20223;-29
2023/04/26 03:40:44;;;;;;;8.83;6.50;;;5.60;99.90;;;;;;5048266;28;20274;-28
2023/04/26 03:43:12;;;;;;;17.33;7.77;;;5.70;99.90;;;;;;5049693;28;20204;-29
2023/04/26 03:45:44;;;;;;;9.83;8.07;;;5.70;99.90;;;;;;5034667;28;20184;-30
2023/04/26 03:48:16;;;;;;;12.17;8.07;;;5.80;99.90;;;;;;5034115;28;20219;-29
2023/04/26 03:50:46;;;;;;;74.77;9.27;;;5.80;99.90;;;;;;5050181;28;20649;-29
2023/04/26 03:53:13;;;;;;;21.00;8.10;;;5.90;99.90;;;;;;5050865;28;20176;-28
2023/04/26 03:55:40;;;;;;;41.13;8.47;;;5.80;99.90;;;;;;5034463;28;20321;-28
2023/04/26 03:58:07;;;;;;;29.07;6.80;;;5.80;99.90;;;;;;5033504;28;20192;-30
2023/04/26 04:00:37;;;;;;;11.20;7.73;;;5.70;99.90;;;;;;5050203;28;20233;-30
2023/04/26 04:03:03;;;;;;;11.63;7.70;;;5.70;99.90;;;;;;5050628;28;20196;-29
2023/04/26 04:05:29;;;;;;;76.00;8.93;;;5.70;99.90;;;;;;5066644;28;20313;-30
2023/04/26 04:07:57;;;;;;;38.27;8.07;;;5.60;99.90;;;;;;5050310;28;20213;-30
2023/04/26 04:10:22;;;;;;;82.20;8.97;;;5.50;99.90;;;;;;5033843;28;20191;-30
2023/04/26 04:12:50;;;;;;;25.90;7.63;;;5.50;99.90;;;;;;5033980;28;20211;-28
2023/04/26 04:15:17;;;;;;;101.70;9.47;;;5.50;99.90;;;;;;5050300;28;20179;-31
2023/04/26 04:17:46;;;;;;;30.50;8.40;;;5.40;99.90;;;;;;5049464;28;20190;-30
2023/04/26 04:20:12;;;;;;;40.37;9.10;;;5.40;99.90;;;;;;5050651;28;20275;-29
2023/04/26 04:22:38;;;;;;;11.00;8.10;;;5.40;99.90;;;;;;5050918;28;20211;-29
2023/04/26 04:25:12;;;;;;;26.90;8.77;;;5.50;99.90;;;;;;5066978;28;20195;-29
2023/04/26 04:27:42;;;;;;;19.87;7.90;;;5.60;99.90;;;;;;5050249;28;20210;-30
2023/04/26 04:30:08;;;;;;;40.57;8.80;;;5.70;99.90;;;;;;5050820;28;20179;-29
2023/04/26 04:32:35;;;;;;;33.27;8.53;;;5.70;99.90;;;;;;5042339;28;20234;-30
2023/04/26 04:35:02;;;;;;;61.77;10.30;;;5.60;99.90;;;;;;5034984;28;20265;-31
2023/04/26 04:37:27;;;;;;;77.40;11.00;;;5.50;99.90;;;;;;5033674;28;20192;-30
2023/04/26 04:39:54;;;;;;;75.17;10.77;;;5.30;99.90;;;;;;5050299;28;20739;-30
2023/04/26 04:42:21;;;;;;;33.97;10.57;;;5.20;99.90;;;;;;5048515;28;20198;-30
2023/04/26 04:44:48;;;;;;;39.37;9.10;;;5.20;99.90;;;;;;5030756;28;20195;-29
2023/04/26 04:47:16;;;;;;;57.03;10.27;;;5.20;99.90;;;;;;5044584;28;20213;-28
2023/04/26 04:49:42;;;;;;;12.53;9.07;;;5.20;99.90;;;;;;5050381;28;20187;-30
2023/04/26 04:52:08;;;;;;;33.03;9.53;;;5.20;99.90;;;;;;5049331;28;20203;-29
2023/04/26 04:54:34;;;;;;;52.80;10.80;;;5.20;99.90;;;;;;5050047;28;20212;-29
2023/04/26 04:57:01;;;;;;;15.27;10.27;;;5.20;99.90;;;;;;5033526;28;20274;-31
2023/04/26 04:59:28;;;;;;;38.13;10.67;;;5.30;99.90;;;;;;5050202;28;20189;-28
2023/04/26 05:01:54;;;;;;;12.80;9.60;;;5.40;99.90;;;;;;5040791;28;20210;-29
2023/04/26 05:04:20;;;;;;;14.57;10.00;;;5.40;99.90;;;;;;5030052;28;20184;-30
2023/04/26 05:06:47;;;;;;;12.00;9.43;;;5.50;99.90;;;;;;5049503;28;20207;-28
2023/04/26 05:09:13;;;;;;;66.60;10.97;;;5.50;99.90;;;;;;5049933;28;20529;-28
2023/04/26 05:11:40;;;;;;;14.83;8.70;;;5.50;99.90;;;;;;5049793;28;20244;-30
2023/04/26 05:14:07;;;;;;;25.13;10.20;;;5.50;99.90;;;;;;5049984;28;20179;-29
2023/04/26 05:16:33;;;;;;;15.67;10.03;;;5.50;99.90;;;;;;5048814;28;20181;-29
2023/04/26 05:19:01;;;;;;;18.50;10.30;;;5.60;99.90;;;;;;5034962;28;20254;-29
2023/04/26 05:21:27;;;;;;;13.33;9.77;;;5.70;99.90;;;;;;5034630;28;20226;-29
2023/04/26 05:23:53;;;;;;;17.57;11.30;;;5.70;99.90;;;;;;5050071;28;20639;-29
2023/04/26 05:26:19;;;;;;;16.03;10.67;;;5.80;99.90;;;;;;5049502;28;20202;-30
2023/04/26 05:28:55;;;;;;;17.67;10.90;;;5.80;99.90;;;;;;5016011;28;20186;-31
2023/04/26 05:31:29;;;;;;;16.03;10.47;;;5.90;99.90;;;;;;5018320;28;20245;-32
2023/04/26 05:34:24;;;;;;;16.37;9.77;;;6.00;99.90;;;;;;5022053;28;20207;-30
2023/04/26 05:36:54;;;;;;;12.97;9.97;;;6.00;99.90;;;;;;5048673;28;20191;-30
2023/04/26 05:39:20;;;;;;;13.33;9.87;;;6.00;99.90;;;;;;5049463;28;20184;-32
2023/04/26 05:41:46;;;;;;;13.87;9.70;;;6.00;99.90;;;;;;5048582;28;20543;-31
2023/04/26 05:44:13;;;;;;;13.27;9.70;;;6.10;99.90;;;;;;5031140;28;20185;-31
2023/04/26 05:46:40;;;;;;;12.47;9.17;;;6.10;99.90;;;;;;5047191;28;20302;-31
2023/04/26 05:49:07;;;;;;;13.90;9.37;;;6.20;99.90;;;;;;5044817;28;20172;-31
2023/04/26 05:51:33;;;;;;;13.43;10.17;;;6.20;99.90;;;;;;5034000;28;20199;-31
2023/04/26 05:54:00;;;;;;;15.43;10.60;;;6.30;99.90;;;;;;5049821;28;20183;-29
2023/04/26 05:56:28;;;;;;;15.10;10.30;;;6.40;99.90;;;;;;5049512;28;20183;-31
2023/04/26 05:58:54;;;;;;;17.50;10.90;;;6.40;99.90;;;;;;5047981;28;20179;-31
2023/04/26 06:01:20;;;;;;;13.77;9.53;;;6.50;99.90;;;;;;5047418;28;20189;-31
2023/04/26 06:03:46;;;;;;;11.37;8.73;;;6.60;99.90;;;;;;5048540;28;20181;-31
2023/04/26 06:06:15;;;;;;;12.67;9.60;;;6.60;99.90;;;;;;5048377;28;20181;-30
2023/04/26 06:08:42;;;;;;;12.27;8.57;;;6.60;99.90;;;;;;5048655;28;20203;-32
2023/04/26 06:11:10;;;;;;;13.83;9.50;;;6.60;99.90;;;;;;5048292;28;20200;-31
2023/04/26 06:13:36;;;;;;;12.20;9.47;;;6.70;99.90;;;;;;5048879;28;20188;-31
2023/04/26 06:16:02;;;;;;;12.47;9.77;;;6.70;99.90;;;;;;5045777;28;20225;-32
2023/04/26 06:18:28;;;;;;;13.27;9.53;;;6.80;99.90;;;;;;5032666;28;20189;-31
2023/04/26 06:20:53;;;;;;;10.90;9.23;;;6.70;99.90;;;;;;5050149;28;20190;-32
2023/04/26 06:23:19;;;;;;;13.27;9.20;;;6.80;99.90;;;;;;5032499;28;20245;-31
2023/04/26 06:25:45;;;;;;;13.27;9.60;;;6.70;99.90;;;;;;5047517;28;20173;-31
2023/04/26 06:28:12;;;;;;;10.83;8.37;;;6.70;99.90;;;;;;5049324;28;20303;-31
2023/04/26 06:30:37;;;;;;;13.27;9.73;;;6.60;99.90;;;;;;5033024;28;20180;-30
2023/04/26 06:33:04;;;;;;;15.50;10.03;;;6.60;99.90;;;;;;5049046;28;20204;-29
2023/04/26 06:35:31;;;;;;;15.30;9.93;;;6.60;99.90;;;;;;5048142;28;20272;-30
2023/04/26 06:37:57;;;;;;;15.80;10.47;;;6.70;99.90;;;;;;5032610;28;20276;-30
2023/04/26 06:40:24;;;;;;;13.10;10.40;;;6.80;99.90;;;;;;5033287;28;20197;-29
2023/04/26 06:42:51;;;;;;;13.30;10.27;;;7.00;99.90;;;;;;5036282;28;20205;-30
2023/04/26 06:45:35;;;;;;;10.93;8.83;;;7.00;99.90;;;;;;5052348;28;20176;-33
2023/04/26 06:48:03;;;;;;;15.00;10.13;;;7.10;99.90;;;;;;5036303;28;20217;-33
2023/04/26 06:50:29;;;;;;;12.87;9.93;;;7.10;99.90;;;;;;5052701;28;20171;-33
2023/04/26 06:52:55;;;;;;;13.60;10.07;;;7.10;99.90;;;;;;5051945;28;20194;-33
2023/04/26 06:55:21;;;;;;;12.20;9.83;;;7.20;99.90;;;;;;5051362;28;20174;-33
2023/04/26 06:57:48;;;;;;;13.00;9.87;;;7.30;99.90;;;;;;5034933;28;20185;-33
2023/04/26 07:00:14;;;;;;;14.03;9.77;;;7.40;99.90;;;;;;5053852;28;20178;-33
2023/04/26 07:02:40;;;;;;;13.60;10.10;;;7.50;99.90;;;;;;5053721;28;20239;-33
2023/04/26 07:05:06;;;;;;;13.10;10.00;;;7.60;99.90;;;;;;5051363;28;20198;-31
2023/04/26 07:07:31;;;;;;;12.50;9.67;;;7.70;99.90;;;;;;5032218;28;20210;-31
2023/04/26 07:09:57;;;;;;;15.90;10.10;;;7.90;99.90;;;;;;5032192;28;20177;-31
2023/04/26 07:14:58;;;;;;;14.03;9.53;;;8.10;99.90;;;;;;5030651;28;20205;-38
2023/04/26 07:17:24;;;;;;;14.13;9.33;;;8.20;99.90;;;;;;5032977;28;20185;-36
2023/04/26 07:19:49;;;;;;;12.17;8.90;;;8.30;99.90;;;;;;5032741;28;20274;-37
2023/04/26 07:22:15;;;;;;;13.77;9.73;;;8.30;99.90;;;;;;5040384;28;20229;-38
2023/04/26 07:24:41;;;;;;;14.53;8.67;;;8.40;99.90;;;;;;5052718;28;20181;-38
2023/04/26 07:27:07;;;;;;;12.43;9.13;;;8.50;99.90;;;;;;5052575;28;20247;-38
2023/04/26 07:29:33;;;;;;;12.67;8.60;;;8.50;99.90;;;;;;5035648;28;20181;-39
2023/04/26 07:31:59;;;;;;;10.97;9.00;;;8.50;99.90;;;;;;5034050;28;20200;-39
2023/04/26 07:34:25;;;;;;;12.97;8.40;;;8.50;99.90;;;;;;5045117;28;20214;-39
2023/04/26 07:36:51;;;;;;;11.70;9.27;;;8.50;99.90;;;;;;5050651;28;20309;-38
2023/04/26 07:39:17;;;;;;;13.30;9.53;;;8.40;99.90;;;;;;5050311;28;20228;-38
2023/04/26 07:41:43;;;;;;;14.60;9.03;;;8.40;99.90;;;;;;5051475;28;20201;-38
2023/04/26 07:44:10;;;;;;;12.67;8.90;;;8.60;99.90;;;;;;5052620;28;20181;-38
2023/04/26 07:46:36;;;;;;;12.17;9.27;;;8.80;99.90;;;;;;5053288;28;20182;-38
2023/04/26 07:49:02;;;;;;;11.77;8.80;;;9.00;99.90;;;;;;5052333;28;20606;-38
2023/04/26 07:51:28;;;;;;;12.17;8.77;;;9.20;99.90;;;;;;5051541;28;20174;-38
2023/04/26 07:53:55;;;;;;;13.87;8.93;;;9.40;99.90;;;;;;5051621;28;20216;-38
2023/04/26 07:56:23;;;;;;;14.77;7.83;;;9.50;99.90;;;;;;5033305;28;20212;-38
2023/04/26 07:58:48;;;;;;;9.00;7.13;;;9.60;99.90;;;;;;5052272;28;20174;-39
2023/04/26 08:01:15;;;;;;;12.53;7.50;;;9.80;99.90;;;;;;5052272;28;20181;-39
2023/04/26 08:03:42;;;;;;;13.27;7.50;;;9.90;99.90;;;;;;5052130;28;20190;-39
2023/04/26 08:06:08;;;;;;;11.57;6.47;;;10.10;99.90;;;;;;5050653;28;20720;-37
2023/04/26 08:08:41;;;;;;;9.17;5.10;;;10.20;99.90;;;;;;5051470;28;20236;-36
2023/04/26 08:11:08;;;;;;;7.97;5.57;;;10.10;99.90;;;;;;5034304;28;20170;-36
2023/04/26 08:13:34;;;;;;;9.87;5.43;;;10.20;99.90;;;;;;5052823;28;20208;-36
2023/04/26 08:16:02;;;;;;;8.07;5.37;;;10.30;99.90;;;;;;5051100;28;20265;-37
2023/04/26 08:18:28;;;;;;;7.43;5.00;;;10.40;99.90;;;;;;5034576;28;20658;-36
2023/04/26 08:20:54;;;;;;;6.93;4.43;;;10.40;99.90;;;;;;5049617;28;20182;-37
2023/04/26 08:23:21;;;;;;;7.43;5.53;;;10.50;99.90;;;;;;5031048;28;20198;-38
2023/04/26 08:25:48;;;;;;;7.43;5.00;;;10.70;99.90;;;;;;5041052;28;20174;-36
2023/04/26 08:28:15;;;;;;;7.40;4.80;;;10.80;99.90;;;;;;5048363;28;20216;-37
2023/04/26 08:30:41;;;;;;;5.97;4.60;;;10.90;99.90;;;;;;5016954;28;20188;-38
2023/04/26 08:33:08;;;;;;;8.83;4.53;;;11.00;99.90;;;;;;5050497;28;20199;-39
2023/04/26 08:35:34;;;;;;;9.67;4.90;;;10.90;99.90;;;;;;5032289;28;20179;-38
2023/04/26 08:38:00;;;;;;;6.50;4.27;;;10.60;99.90;;;;;;5031530;28;20191;-41
2023/04/26 08:40:26;;;;;;;7.50;3.97;;;10.50;99.90;;;;;;5029575;28;20250;-39
2023/04/26 08:42:53;;;;;;;7.47;4.80;;;10.70;99.90;;;;;;5049736;28;20285;-36
2023/04/26 08:45:20;;;;;;;7.83;4.70;;;10.90;99.90;;;;;;5050211;28;20193;-37
2023/04/26 08:47:51;;;;;;;8.43;4.73;;;11.10;99.90;;;;;;5033419;28;20205;-36
2023/04/26 08:50:22;;;;;;;7.83;4.63;;;11.40;99.90;;;;;;5013457;28;20186;-41
2023/04/26 08:52:50;;;;;;;7.03;4.43;;;11.60;99.90;;;;;;5031047;28;20199;-39
2023/04/26 08:55:18;;;;;;;6.30;4.30;;;11.40;99.90;;;;;;5013662;28;20241;-39
2023/04/26 08:57:49;;;;;;;6.47;5.03;;;11.50;99.90;;;;;;5014250;28;20184;-42
2023/04/26 09:00:18;;;;;;;10.13;4.47;;;11.60;99.90;;;;;;5047983;28;20308;-38
2023/04/26 09:02:51;;;;;;;7.43;4.30;;;11.50;99.90;;;;;;5034094;28;20259;-39
2023/04/26 09:05:27;;;;;;;5.77;3.77;;;11.90;99.90;;;;;;5051105;28;20184;-38
2023/04/26 09:07:59;;;;;;;8.80;4.37;;;12.30;99.90;;;;;;5049876;28;20211;-41
2023/04/26 09:10:25;;;;;;;9.13;4.03;;;12.40;99.90;;;;;;5050296;28;20198;-39
2023/04/26 09:12:52;;;;;;;8.57;4.17;;;12.40;99.90;;;;;;5050355;28;20220;-39
2023/04/26 09:15:20;;;;;;;6.83;3.87;;;12.50;99.90;;;;;;5032693;28;20188;-41
2023/04/26 09:17:48;;;;;;;7.90;4.60;;;12.70;99.90;;;;;;5050351;28;20291;-39
2023/04/26 09:20:26;;;;;;;6.63;4.37;;;12.90;99.90;;;;;;5033205;28;20185;-40
2023/04/26 09:22:53;;;;;;;8.27;4.60;;;12.80;99.90;;;;;;5048625;28;20213;-39
2023/04/26 09:25:30;;;;;;;9.13;4.30;;;12.60;99.90;;;;;;5049847;28;20219;-39
2023/04/26 09:27:57;;;;;;;8.43;4.57;;;12.50;99.90;;;;;;5032943;28;20201;-40
2023/04/26 09:30:23;;;;;;;8.60;4.97;;;12.30;99.90;;;;;;5050770;28;20188;-38
2023/04/26 09:32:54;;;;;;;8.83;4.27;;;11.90;99.90;;;;;;5033416;28;20202;-40
2023/04/26 09:35:29;;;;;;;8.20;4.70;;;11.70;99.90;;;;;;5032626;28;20187;-39
2023/04/26 09:37:59;;;;;;;7.73;4.30;;;11.50;99.90;;;;;;5049747;28;20190;-41
2023/04/26 09:40:26;;;;;;;8.30;4.47;;;11.60;99.90;;;;;;5033185;28;20239;-41
2023/04/26 09:43:03;;;;;;;6.80;4.50;;;11.80;99.90;;;;;;5049737;28;20214;-43
2023/04/26 09:45:32;;;;;;;7.17;4.23;;;12.10;99.90;;;;;;5032228;28;20185;-38
2023/04/26 09:48:21;;;;;;;8.93;4.57;;;12.20;99.90;;;;;;5033026;28;20203;-38
2023/04/26 09:50:51;;;;;;;7.53;4.37;;;11.80;99.90;;;;;;5048702;28;20283;-42
2023/04/26 09:53:40;;;;;;;5.70;3.80;;;11.90;99.90;;;;;;5049670;28;20264;-38
2023/04/26 09:56:07;;;;;;;5.83;3.70;;;12.20;99.90;;;;;;5048946;28;20192;-39
2023/04/26 09:58:33;;;;;;;7.73;3.90;;;12.40;99.90;;;;;;5050300;28;20189;-40
2023/04/26 10:01:00;;;;;;;6.10;4.20;;;12.50;99.90;;;;;;5049136;28;20638;-38
2023/04/26 10:03:26;;;;;;;7.47;3.83;;;12.70;99.90;;;;;;5049523;28;20212;-39
2023/04/26 10:05:52;;;;;;;7.20;4.37;;;12.60;99.90;;;;;;5048058;28;20193;-41
2023/04/26 10:08:18;;;;;;;9.70;4.03;;;12.60;99.90;;;;;;5024289;28;20236;-38
2023/04/26 10:10:44;;;;;;;9.50;4.50;;;12.60;99.90;;;;;;5048968;28;20200;-39
2023/04/26 10:13:11;;;;;;;7.80;4.17;;;12.10;99.90;;;;;;5032527;28;20205;-39
2023/04/26 10:15:39;;;;;;;4.57;3.47;;;12.50;99.90;;;;;;5053824;28;20185;-39
2023/04/26 10:18:05;;;;;;;5.93;3.90;;;12.90;99.90;;;;;;5033579;28;20268;-36
2023/04/26 10:20:31;;;;;;;6.50;3.60;;;13.30;99.90;;;;;;5043134;28;20264;-38
2023/04/26 10:23:02;;;;;;;5.80;4.00;;;13.80;99.90;;;;;;5053854;28;20200;-37
2023/04/26 10:25:39;;;;;;;5.87;3.80;;;14.10;99.90;;;;;;5036642;28;20170;-37
2023/04/26 10:28:05;;;;;;;5.43;3.47;;;13.70;99.90;;;;;;5036458;28;20225;-37
2023/04/26 10:30:31;;;;;;;4.73;2.50;;;13.90;99.90;;;;;;5032602;28;20211;-37
2023/04/26 10:32:57;;;;;;;4.43;2.40;;;14.10;99.90;;;;;;5048204;28;20293;-38
2023/04/26 10:35:24;;;;;;;4.27;2.77;;;13.70;99.90;;;;;;5044771;28;20265;-37
2023/04/26 10:38:05;;;;;;;3.93;2.20;;;13.90;99.90;;;;;;5052396;28;20181;-37
2023/04/26 10:40:32;;;;;;;3.70;2.40;;;14.30;99.90;;;;;;5033884;28;20190;-36
2023/04/26 10:43:19;;;;;;;3.20;2.50;;;14.50;99.90;;;;;;5047482;28;20252;-40
2023/04/26 10:45:45;;;;;;;4.20;2.70;;;14.50;99.90;;;;;;5052631;28;20176;-36
2023/04/26 10:48:26;;;;;;;8.00;2.80;;;13.70;99.90;;;;;;5022117;28;20210;-36
2023/04/26 10:53:25;;;;;;;5.77;3.00;;;12.90;99.90;;;;;;5046811;28;20230;-38
2023/04/26 10:55:51;;;;;;;3.93;2.73;;;13.00;99.90;;;;;;5051539;28;20174;-37
2023/04/26 10:58:30;;;;;;;3.83;2.73;;;13.00;99.90;;;;;;5051939;28;20192;-38
2023/04/26 11:01:12;;;;;;;4.37;2.50;;;13.40;99.90;;;;;;5049179;28;20189;-37
2023/04/26 11:03:40;;;;;;;3.77;2.80;;;13.70;99.90;;;;;;5032833;28;20197;-37
2023/04/26 11:06:08;;;;;;;5.33;2.60;;;13.70;99.90;;;;;;5052262;28;20190;-37
2023/04/26 11:08:35;;;;;;;3.20;2.70;;;13.40;99.90;;;;;;5051838;28;20216;-37
2023/04/26 11:11:01;;;;;;;5.90;3.10;;;13.50;99.90;;;;;;5050949;28;20182;-36
2023/04/26 11:13:34;;;;;;;3.47;2.37;;;13.70;99.90;;;;;;5051756;28;20224;-37
2023/04/26 11:16:03;;;;;;;4.03;2.50;;;13.90;99.90;;;;;;5064427;28;20178;-37
2023/04/26 11:18:34;;;;;;;4.17;3.00;;;14.20;99.90;;;;;;5050421;28;20241;-36
2023/04/26 11:21:03;;;;;;;5.87;2.63;;;14.10;99.90;;;;;;5048088;28;20189;-37
2023/04/26 11:23:30;;;;;;;4.13;2.67;;;14.30;99.90;;;;;;5030793;28;20213;-36
2023/04/26 11:26:01;;;;;;;3.77;2.67;;;14.20;99.90;;;;;;5044233;28;20186;-36
2023/04/26 11:28:28;;;;;;;3.60;2.90;;;13.90;99.90;;;;;;5050987;28;20263;-39
2023/04/26 11:30:54;;;;;;;6.10;2.70;;;13.80;99.90;;;;;;5052997;28;20217;-39
2023/04/26 11:33:21;;;;;;;5.73;2.90;;;13.50;99.90;;;;;;5051545;28;20199;-41
2023/04/26 11:35:49;;;;;;;3.80;2.00;;;13.70;99.90;;;;;;5051703;28;20184;-37
2023/04/26 11:38:16;;;;;;;4.47;2.70;;;14.00;99.90;;;;;;5051366;28;20219;-38
2023/04/26 11:40:41;;;;;;;5.30;2.80;;;14.00;99.90;;;;;;5051419;28;20190;-38
2023/04/26 11:43:09;;;;;;;4.70;2.93;;;13.60;99.90;;;;;;5050525;28;20210;-37
2023/04/26 11:45:36;;;;;;;5.23;2.73;;;13.30;99.90;;;;;;5052029;28;20197;-37
2023/04/26 11:48:06;;;;;;;5.87;2.83;;;13.80;99.90;;;;;;5037202;28;20213;-40
2023/04/26 11:50:34;;;;;;;3.07;2.23;;;14.30;99.90;;;;;;5050541;28;20227;-38
2023/04/26 11:53:02;;;;;;;3.53;2.60;;;14.80;99.90;;;;;;5050796;28;20198;-37
2023/04/26 11:55:33;;;;;;;3.93;2.67;;;15.30;99.90;;;;;;5049786;28;20277;-41
2023/04/26 11:58:08;;;;;;;3.97;2.30;;;15.40;99.90;;;;;;5050531;28;20197;-40
2023/04/26 12:00:37;;;;;;;3.57;2.23;;;15.50;99.90;;;;;;5052240;28;20186;-39
2023/04/26 12:03:10;;;;;;;3.87;2.50;;;15.60;99.90;;;;;;5033808;28;20205;-39
2023/04/26 12:05:37;;;;;;;4.07;2.50;;;15.70;99.90;;;;;;5042925;28;20179;-39
2023/04/26 12:08:13;;;;;;;5.30;2.90;;;15.80;99.90;;;;;;5045856;28;20212;-37
2023/04/26 12:10:39;;;;;;;5.83;2.60;;;15.60;99.90;;;;;;5047925;28;20182;-39
2023/04/26 12:13:06;;;;;;;4.03;2.50;;;15.30;99.90;;;;;;5051862;28;20259;-39
2023/04/26 12:15:33;;;;;;;3.57;2.23;;;15.00;99.90;;;;;;5041063;28;20303;-39
2023/04/26 12:18:07;;;;;;;2.77;2.30;;;15.30;99.90;;;;;;5052164;28;20211;-38
2023/04/26 12:20:34;;;;;;;4.47;2.80;;;15.50;99.90;;;;;;5052756;28;20181;-37
2023/04/26 12:23:15;;;;;;;4.43;2.50;;;15.40;99.90;;;;;;5051254;28;20201;-37
2023/04/26 12:25:51;;;;;;;6.07;2.23;;;15.60;99.90;;;;;;5045457;28;20224;-36
2023/04/26 12:28:17;;;;;;;5.97;2.80;;;15.90;99.90;;;;;;5050619;28;20215;-39
2023/04/26 12:30:43;;;;;;;3.03;2.60;;;15.90;99.90;;;;;;5053426;28;20241;-38
2023/04/26 12:33:10;;;;;;;4.77;2.40;;;15.70;99.90;;;;;;5050228;28;20201;-36
2023/04/26 12:35:36;;;;;;;4.53;2.73;;;15.30;99.90;;;;;;5032674;28;20186;-39
2023/04/26 12:38:02;;;;;;;3.40;2.13;;;15.00;99.90;;;;;;5050217;28;20186;-37
2023/04/26 12:40:28;;;;;;;5.70;2.37;;;14.80;99.90;;;;;;5050603;28;20178;-41
2023/04/26 12:42:54;;;;;;;3.67;1.93;;;14.80;99.90;;;;;;5043281;28;20294;-37
2023/04/26 12:45:22;;;;;;;3.40;2.00;;;14.90;99.90;;;;;;5047126;28;20238;-39
2023/04/26 12:47:48;;;;;;;4.17;2.60;;;15.20;99.90;;;;;;5040171;28;20202;-38
2023/04/26 12:50:14;;;;;;;3.87;2.20;;;14.80;99.90;;;;;;5049868;28;20185;-39
2023/04/26 12:52:42;;;;;;;3.43;2.47;;;14.90;99.90;;;;;;5049994;28;20678;-40
2023/04/26 12:55:10;;;;;;;6.03;2.60;;;15.00;99.90;;;;;;5050936;28;20181;-36